sensor_id;sensor_type;location;lat;lon;timestamp;P1;durP1;ratioP1;P2;durP2;ratioP2
8982;SDS011;20979;59.850;10.660;2023-07-16T00:02:03;5.43;;;4.93;;
8982;SDS011;20979;59.850;10.660;2023-07-16T00:04:31;6.20;;;4.40;;
8982;SDS011;20979;59.850;10.660;2023-07-16T00:07:12;7.40;;;4.53;;
8982;SDS011;20979;59.850;10.660;2023-07-16T00:09:40;31.47;;;5.80;;
8982;SDS011;20979;59.850;10.660;2023-07-16T00:12:07;5.23;;;4.23;;
8982;SDS011;20979;59.850;10.660;2023-07-16T00:14:36;4.30;;;3.90;;
8982;SDS011;20979;59.850;10.660;2023-07-16T00:17:04;4.20;;;3.90;;
8982;SDS011;20979;59.850;10.660;2023-07-16T00:19:31;4.10;;;3.90;;
8982;SDS011;20979;59.850;10.660;2023-07-16T00:21:59;6.70;;;4.30;;
8982;SDS011;20979;59.850;10.660;2023-07-16T00:24:27;14.13;;;4.87;;
8982;SDS011;20979;59.850;10.660;2023-07-16T00:26:55;4.73;;;4.30;;
8982;SDS011;20979;59.850;10.660;2023-07-16T00:29:22;4.20;;;3.90;;
8982;SDS011;20979;59.850;10.660;2023-07-16T00:31:54;4.27;;;3.83;;
8982;SDS011;20979;59.850;10.660;2023-07-16T00:34:25;5.17;;;4.07;;
8982;SDS011;20979;59.850;10.660;2023-07-16T00:36:52;4.10;;;3.77;;
8982;SDS011;20979;59.850;10.660;2023-07-16T00:39:26;4.50;;;4.10;;
8982;SDS011;20979;59.850;10.660;2023-07-16T00:41:54;4.53;;;4.13;;
8982;SDS011;20979;59.850;10.660;2023-07-16T00:44:35;4.33;;;4.03;;
8982;SDS011;20979;59.850;10.660;2023-07-16T00:47:04;4.30;;;3.90;;
8982;SDS011;20979;59.850;10.660;2023-07-16T00:49:32;4.10;;;3.70;;
8982;SDS011;20979;59.850;10.660;2023-07-16T00:51:59;4.23;;;3.80;;
8982;SDS011;20979;59.850;10.660;2023-07-16T00:54:27;3.37;;;3.17;;
8982;SDS011;20979;59.850;10.660;2023-07-16T00:56:56;6.80;;;3.80;;
8982;SDS011;20979;59.850;10.660;2023-07-16T00:59:24;3.77;;;3.47;;
8982;SDS011;20979;59.850;10.660;2023-07-16T01:01:51;5.73;;;3.30;;
8982;SDS011;20979;59.850;10.660;2023-07-16T01:05:03;3.30;;;3.00;;
8982;SDS011;20979;59.850;10.660;2023-07-16T01:07:33;3.00;;;2.80;;
8982;SDS011;20979;59.850;10.660;2023-07-16T01:10:01;3.50;;;2.83;;
8982;SDS011;20979;59.850;10.660;2023-07-16T01:12:29;6.90;;;3.50;;
8982;SDS011;20979;59.850;10.660;2023-07-16T01:14:58;6.70;;;3.73;;
8982;SDS011;20979;59.850;10.660;2023-07-16T01:26:44;8.23;;;3.63;;
8982;SDS011;20979;59.850;10.660;2023-07-16T01:29:35;9.57;;;3.40;;
8982;SDS011;20979;59.850;10.660;2023-07-16T01:32:04;5.33;;;3.20;;
8982;SDS011;20979;59.850;10.660;2023-07-16T01:34:33;3.53;;;3.20;;
8982;SDS011;20979;59.850;10.660;2023-07-16T01:37:02;3.33;;;3.13;;
8982;SDS011;20979;59.850;10.660;2023-07-16T01:39:30;3.80;;;3.40;;
8982;SDS011;20979;59.850;10.660;2023-07-16T01:41:59;3.97;;;3.30;;
8982;SDS011;20979;59.850;10.660;2023-07-16T01:44:27;4.43;;;3.00;;
8982;SDS011;20979;59.850;10.660;2023-07-16T01:47:03;101.93;;;9.20;;
8982;SDS011;20979;59.850;10.660;2023-07-16T01:49:32;3.93;;;3.10;;
8982;SDS011;20979;59.850;10.660;2023-07-16T01:52:00;3.50;;;3.20;;
8982;SDS011;20979;59.850;10.660;2023-07-16T01:54:28;3.43;;;3.13;;
8982;SDS011;20979;59.850;10.660;2023-07-16T01:56:56;3.37;;;3.00;;
8982;SDS011;20979;59.850;10.660;2023-07-16T01:59:23;14.17;;;3.97;;
8982;SDS011;20979;59.850;10.660;2023-07-16T02:01:53;4.13;;;3.20;;
8982;SDS011;20979;59.850;10.660;2023-07-16T02:04:22;13.47;;;3.80;;
8982;SDS011;20979;59.850;10.660;2023-07-16T02:06:50;5.37;;;3.10;;
8982;SDS011;20979;59.850;10.660;2023-07-16T02:09:17;74.20;;;8.47;;
8982;SDS011;20979;59.850;10.660;2023-07-16T02:11:45;6.03;;;3.50;;
8982;SDS011;20979;59.850;10.660;2023-07-16T02:14:23;3.20;;;3.00;;
8982;SDS011;20979;59.850;10.660;2023-07-16T02:16:50;3.77;;;3.33;;
8982;SDS011;20979;59.850;10.660;2023-07-16T02:19:18;3.93;;;3.03;;
8982;SDS011;20979;59.850;10.660;2023-07-16T02:21:47;3.67;;;3.30;;
8982;SDS011;20979;59.850;10.660;2023-07-16T02:24:25;4.03;;;3.40;;
8982;SDS011;20979;59.850;10.660;2023-07-16T02:26:53;5.37;;;3.40;;
8982;SDS011;20979;59.850;10.660;2023-07-16T02:29:20;4.00;;;3.50;;
8982;SDS011;20979;59.850;10.660;2023-07-16T02:31:51;6.80;;;3.23;;
8982;SDS011;20979;59.850;10.660;2023-07-16T02:37:08;5.43;;;3.80;;
8982;SDS011;20979;59.850;10.660;2023-07-16T02:39:36;3.93;;;3.37;;
8982;SDS011;20979;59.850;10.660;2023-07-16T02:42:04;3.83;;;3.50;;
8982;SDS011;20979;59.850;10.660;2023-07-16T02:44:40;4.83;;;3.63;;
8982;SDS011;20979;59.850;10.660;2023-07-16T02:47:13;5.27;;;3.37;;
8982;SDS011;20979;59.850;10.660;2023-07-16T02:49:50;5.50;;;3.73;;
8982;SDS011;20979;59.850;10.660;2023-07-16T02:52:19;6.33;;;3.80;;
8982;SDS011;20979;59.850;10.660;2023-07-16T02:54:46;5.67;;;3.80;;
8982;SDS011;20979;59.850;10.660;2023-07-16T02:57:14;5.10;;;3.50;;
8982;SDS011;20979;59.850;10.660;2023-07-16T02:59:41;4.20;;;3.37;;
8982;SDS011;20979;59.850;10.660;2023-07-16T03:02:09;5.27;;;3.37;;
8982;SDS011;20979;59.850;10.660;2023-07-16T03:04:37;4.33;;;3.27;;
8982;SDS011;20979;59.850;10.660;2023-07-16T03:07:04;3.43;;;3.13;;
8982;SDS011;20979;59.850;10.660;2023-07-16T03:09:36;4.80;;;3.13;;
8982;SDS011;20979;59.850;10.660;2023-07-16T03:12:04;3.67;;;3.03;;
8982;SDS011;20979;59.850;10.660;2023-07-16T03:14:32;3.87;;;3.10;;
8982;SDS011;20979;59.850;10.660;2023-07-16T03:16:59;4.10;;;3.03;;
8982;SDS011;20979;59.850;10.660;2023-07-16T03:19:27;4.57;;;2.90;;
8982;SDS011;20979;59.850;10.660;2023-07-16T03:21:54;4.60;;;3.17;;
8982;SDS011;20979;59.850;10.660;2023-07-16T03:24:22;4.60;;;2.90;;
8982;SDS011;20979;59.850;10.660;2023-07-16T03:26:51;4.60;;;3.10;;
8982;SDS011;20979;59.850;10.660;2023-07-16T03:29:24;3.80;;;3.10;;
8982;SDS011;20979;59.850;10.660;2023-07-16T03:31:52;4.77;;;3.20;;
8982;SDS011;20979;59.850;10.660;2023-07-16T03:34:38;5.07;;;3.10;;
8982;SDS011;20979;59.850;10.660;2023-07-16T03:37:06;3.40;;;3.10;;
8982;SDS011;20979;59.850;10.660;2023-07-16T03:39:33;3.40;;;2.93;;
8982;SDS011;20979;59.850;10.660;2023-07-16T03:42:03;3.73;;;3.30;;
8982;SDS011;20979;59.850;10.660;2023-07-16T03:44:30;5.83;;;3.20;;
8982;SDS011;20979;59.850;10.660;2023-07-16T03:47:11;5.67;;;3.10;;
8982;SDS011;20979;59.850;10.660;2023-07-16T03:49:39;3.50;;;3.00;;
8982;SDS011;20979;59.850;10.660;2023-07-16T03:52:07;3.53;;;3.00;;
8982;SDS011;20979;59.850;10.660;2023-07-16T03:54:35;5.43;;;2.90;;
8982;SDS011;20979;59.850;10.660;2023-07-16T03:57:05;3.50;;;2.93;;
8982;SDS011;20979;59.850;10.660;2023-07-16T03:59:32;5.53;;;2.93;;
8982;SDS011;20979;59.850;10.660;2023-07-16T04:02:00;7.53;;;3.37;;
8982;SDS011;20979;59.850;10.660;2023-07-16T04:04:47;3.50;;;3.17;;
8982;SDS011;20979;59.850;10.660;2023-07-16T04:07:15;3.43;;;3.03;;
8982;SDS011;20979;59.850;10.660;2023-07-16T04:09:42;3.83;;;3.03;;
8982;SDS011;20979;59.850;10.660;2023-07-16T04:12:11;4.33;;;3.03;;
8982;SDS011;20979;59.850;10.660;2023-07-16T04:14:39;5.70;;;3.20;;
8982;SDS011;20979;59.850;10.660;2023-07-16T04:17:06;4.37;;;3.20;;
8982;SDS011;20979;59.850;10.660;2023-07-16T04:19:36;5.77;;;3.17;;
8982;SDS011;20979;59.850;10.660;2023-07-16T04:22:04;3.53;;;2.80;;
8982;SDS011;20979;59.850;10.660;2023-07-16T04:24:32;3.07;;;2.77;;
8982;SDS011;20979;59.850;10.660;2023-07-16T04:26:59;3.77;;;2.97;;
8982;SDS011;20979;59.850;10.660;2023-07-16T04:29:38;2.67;;;2.47;;
8982;SDS011;20979;59.850;10.660;2023-07-16T04:32:05;3.43;;;2.57;;
8982;SDS011;20979;59.850;10.660;2023-07-16T04:34:35;3.03;;;2.40;;
8982;SDS011;20979;59.850;10.660;2023-07-16T04:37:03;5.60;;;2.80;;
8982;SDS011;20979;59.850;10.660;2023-07-16T04:39:31;3.80;;;2.73;;
8982;SDS011;20979;59.850;10.660;2023-07-16T04:41:58;2.80;;;2.50;;
8982;SDS011;20979;59.850;10.660;2023-07-16T04:44:26;4.03;;;2.60;;
8982;SDS011;20979;59.850;10.660;2023-07-16T04:46:55;3.87;;;2.80;;
8982;SDS011;20979;59.850;10.660;2023-07-16T04:49:23;2.90;;;2.70;;
8982;SDS011;20979;59.850;10.660;2023-07-16T04:51:50;4.80;;;2.67;;
8982;SDS011;20979;59.850;10.660;2023-07-16T04:54:18;2.90;;;2.60;;
8982;SDS011;20979;59.850;10.660;2023-07-16T04:56:45;5.13;;;2.90;;
8982;SDS011;20979;59.850;10.660;2023-07-16T04:59:13;5.17;;;2.90;;
8982;SDS011;20979;59.850;10.660;2023-07-16T05:01:41;3.63;;;2.83;;
8982;SDS011;20979;59.850;10.660;2023-07-16T05:04:10;4.00;;;2.87;;
8982;SDS011;20979;59.850;10.660;2023-07-16T05:06:38;3.90;;;2.70;;
8982;SDS011;20979;59.850;10.660;2023-07-16T05:09:05;5.00;;;2.80;;
8982;SDS011;20979;59.850;10.660;2023-07-16T05:11:33;4.73;;;2.47;;
8982;SDS011;20979;59.850;10.660;2023-07-16T05:14:02;4.17;;;2.57;;
8982;SDS011;20979;59.850;10.660;2023-07-16T05:16:30;3.50;;;2.43;;
8982;SDS011;20979;59.850;10.660;2023-07-16T05:18:57;4.13;;;2.60;;
8982;SDS011;20979;59.850;10.660;2023-07-16T05:21:26;3.57;;;2.50;;
8982;SDS011;20979;59.850;10.660;2023-07-16T05:23:54;3.83;;;2.40;;
8982;SDS011;20979;59.850;10.660;2023-07-16T05:29:05;4.33;;;3.00;;
8982;SDS011;20979;59.850;10.660;2023-07-16T05:31:33;5.97;;;2.90;;
8982;SDS011;20979;59.850;10.660;2023-07-16T05:34:02;4.47;;;2.63;;
8982;SDS011;20979;59.850;10.660;2023-07-16T05:36:45;5.23;;;2.77;;
8982;SDS011;20979;59.850;10.660;2023-07-16T05:39:12;4.40;;;2.70;;
8982;SDS011;20979;59.850;10.660;2023-07-16T05:41:40;4.13;;;2.60;;
8982;SDS011;20979;59.850;10.660;2023-07-16T05:44:11;4.17;;;2.60;;
8982;SDS011;20979;59.850;10.660;2023-07-16T05:46:38;3.87;;;2.73;;
8982;SDS011;20979;59.850;10.660;2023-07-16T05:49:06;3.60;;;2.40;;
8982;SDS011;20979;59.850;10.660;2023-07-16T05:51:33;3.17;;;2.77;;
8982;SDS011;20979;59.850;10.660;2023-07-16T05:54:03;6.43;;;2.60;;
8982;SDS011;20979;59.850;10.660;2023-07-16T05:56:31;4.60;;;2.80;;
8982;SDS011;20979;59.850;10.660;2023-07-16T05:58:58;4.60;;;2.43;;
8982;SDS011;20979;59.850;10.660;2023-07-16T06:01:26;3.57;;;2.27;;
8982;SDS011;20979;59.850;10.660;2023-07-16T06:03:54;6.53;;;2.80;;
8982;SDS011;20979;59.850;10.660;2023-07-16T06:06:22;3.17;;;2.67;;
8982;SDS011;20979;59.850;10.660;2023-07-16T06:08:49;4.27;;;2.47;;
8982;SDS011;20979;59.850;10.660;2023-07-16T06:11:18;3.90;;;2.57;;
8982;SDS011;20979;59.850;10.660;2023-07-16T06:13:46;4.37;;;2.70;;
8982;SDS011;20979;59.850;10.660;2023-07-16T06:16:13;2.80;;;2.50;;
8982;SDS011;20979;59.850;10.660;2023-07-16T06:18:41;2.97;;;2.70;;
8982;SDS011;20979;59.850;10.660;2023-07-16T06:21:12;5.60;;;2.67;;
8982;SDS011;20979;59.850;10.660;2023-07-16T06:23:53;2.50;;;2.30;;
8982;SDS011;20979;59.850;10.660;2023-07-16T06:26:22;4.33;;;2.40;;
8982;SDS011;20979;59.850;10.660;2023-07-16T06:28:50;4.00;;;2.50;;
8982;SDS011;20979;59.850;10.660;2023-07-16T06:31:18;3.63;;;2.40;;
8982;SDS011;20979;59.850;10.660;2023-07-16T06:33:45;4.00;;;2.60;;
8982;SDS011;20979;59.850;10.660;2023-07-16T06:36:14;4.20;;;2.37;;
8982;SDS011;20979;59.850;10.660;2023-07-16T06:38:55;4.30;;;2.50;;
8982;SDS011;20979;59.850;10.660;2023-07-16T06:41:26;3.03;;;2.40;;
8982;SDS011;20979;59.850;10.660;2023-07-16T06:43:55;3.47;;;2.47;;
8982;SDS011;20979;59.850;10.660;2023-07-16T06:46:23;3.97;;;2.37;;
8982;SDS011;20979;59.850;10.660;2023-07-16T06:51:50;6.53;;;2.60;;
8982;SDS011;20979;59.850;10.660;2023-07-16T06:54:18;2.60;;;2.40;;
8982;SDS011;20979;59.850;10.660;2023-07-16T06:59:46;3.77;;;2.60;;
8982;SDS011;20979;59.850;10.660;2023-07-16T07:02:17;5.83;;;2.67;;
8982;SDS011;20979;59.850;10.660;2023-07-16T07:04:47;5.20;;;2.80;;
8982;SDS011;20979;59.850;10.660;2023-07-16T07:07:17;6.33;;;2.80;;
8982;SDS011;20979;59.850;10.660;2023-07-16T07:09:46;5.60;;;2.90;;
8982;SDS011;20979;59.850;10.660;2023-07-16T07:12:15;4.17;;;2.50;;
8982;SDS011;20979;59.850;10.660;2023-07-16T07:14:47;4.50;;;2.43;;
8982;SDS011;20979;59.850;10.660;2023-07-16T07:17:15;5.33;;;2.87;;
8982;SDS011;20979;59.850;10.660;2023-07-16T07:19:42;4.77;;;2.63;;
8982;SDS011;20979;59.850;10.660;2023-07-16T07:22:10;5.07;;;2.40;;
8982;SDS011;20979;59.850;10.660;2023-07-16T07:24:38;3.70;;;2.60;;
8982;SDS011;20979;59.850;10.660;2023-07-16T07:27:05;3.80;;;2.73;;
8982;SDS011;20979;59.850;10.660;2023-07-16T07:29:33;6.33;;;3.53;;
8982;SDS011;20979;59.850;10.660;2023-07-16T07:32:02;5.73;;;2.70;;
8982;SDS011;20979;59.850;10.660;2023-07-16T07:34:29;4.50;;;2.70;;
8982;SDS011;20979;59.850;10.660;2023-07-16T07:36:57;5.03;;;2.90;;
8982;SDS011;20979;59.850;10.660;2023-07-16T07:39:24;5.17;;;2.80;;
8982;SDS011;20979;59.850;10.660;2023-07-16T07:41:52;5.40;;;3.00;;
8982;SDS011;20979;59.850;10.660;2023-07-16T07:44:25;7.73;;;3.10;;
8982;SDS011;20979;59.850;10.660;2023-07-16T07:46:53;4.67;;;2.80;;
8982;SDS011;20979;59.850;10.660;2023-07-16T07:49:22;7.50;;;3.00;;
8982;SDS011;20979;59.850;10.660;2023-07-16T07:51:49;6.87;;;2.80;;
8982;SDS011;20979;59.850;10.660;2023-07-16T07:54:20;6.30;;;3.07;;
8982;SDS011;20979;59.850;10.660;2023-07-16T07:56:47;10.93;;;3.57;;
8982;SDS011;20979;59.850;10.660;2023-07-16T07:59:15;7.10;;;3.23;;
8982;SDS011;20979;59.850;10.660;2023-07-16T08:01:42;6.10;;;3.00;;
8982;SDS011;20979;59.850;10.660;2023-07-16T08:04:10;8.50;;;3.40;;
8982;SDS011;20979;59.850;10.660;2023-07-16T08:06:49;9.40;;;3.60;;
8982;SDS011;20979;59.850;10.660;2023-07-16T08:09:16;10.33;;;3.50;;
8982;SDS011;20979;59.850;10.660;2023-07-16T08:11:44;8.73;;;3.30;;
8982;SDS011;20979;59.850;10.660;2023-07-16T08:14:11;6.93;;;3.00;;
8982;SDS011;20979;59.850;10.660;2023-07-16T08:16:39;7.57;;;3.20;;
8982;SDS011;20979;59.850;10.660;2023-07-16T08:19:06;7.73;;;3.27;;
8982;SDS011;20979;59.850;10.660;2023-07-16T08:21:35;9.37;;;3.20;;
8982;SDS011;20979;59.850;10.660;2023-07-16T08:24:05;9.20;;;3.27;;
8982;SDS011;20979;59.850;10.660;2023-07-16T08:26:33;6.93;;;3.13;;
8982;SDS011;20979;59.850;10.660;2023-07-16T08:29:00;8.07;;;3.00;;
8982;SDS011;20979;59.850;10.660;2023-07-16T08:31:28;10.27;;;3.00;;
8982;SDS011;20979;59.850;10.660;2023-07-16T08:33:57;12.57;;;3.10;;
8982;SDS011;20979;59.850;10.660;2023-07-16T08:36:25;11.37;;;3.73;;
8982;SDS011;20979;59.850;10.660;2023-07-16T08:38:53;9.50;;;3.60;;
8982;SDS011;20979;59.850;10.660;2023-07-16T08:41:21;10.60;;;3.23;;
8982;SDS011;20979;59.850;10.660;2023-07-16T08:43:50;8.00;;;3.40;;
8982;SDS011;20979;59.850;10.660;2023-07-16T08:46:31;7.20;;;3.17;;
8982;SDS011;20979;59.850;10.660;2023-07-16T08:49:13;7.77;;;3.07;;
8982;SDS011;20979;59.850;10.660;2023-07-16T08:51:40;8.33;;;3.23;;
8982;SDS011;20979;59.850;10.660;2023-07-16T08:54:09;9.03;;;3.20;;
8982;SDS011;20979;59.850;10.660;2023-07-16T08:59:34;7.37;;;3.00;;
8982;SDS011;20979;59.850;10.660;2023-07-16T09:02:02;8.10;;;3.07;;
8982;SDS011;20979;59.850;10.660;2023-07-16T09:04:29;9.87;;;3.50;;
8982;SDS011;20979;59.850;10.660;2023-07-16T09:06:57;9.60;;;3.30;;
8982;SDS011;20979;59.850;10.660;2023-07-16T09:09:25;8.23;;;3.50;;
8982;SDS011;20979;59.850;10.660;2023-07-16T09:14:31;9.23;;;3.30;;
8982;SDS011;20979;59.850;10.660;2023-07-16T09:16:59;7.93;;;3.40;;
8982;SDS011;20979;59.850;10.660;2023-07-16T09:19:26;8.80;;;3.33;;
8982;SDS011;20979;59.850;10.660;2023-07-16T09:21:54;11.97;;;3.13;;
8982;SDS011;20979;59.850;10.660;2023-07-16T09:24:21;11.77;;;3.43;;
8982;SDS011;20979;59.850;10.660;2023-07-16T09:26:49;8.55;;;3.03;;
8982;SDS011;20979;59.850;10.660;2023-07-16T09:29:17;8.40;;;4.00;;
8982;SDS011;20979;59.850;10.660;2023-07-16T09:37:40;8.60;;;3.50;;
8982;SDS011;20979;59.850;10.660;2023-07-16T09:40:09;11.50;;;3.75;;
8982;SDS011;20979;59.850;10.660;2023-07-16T09:42:37;10.53;;;3.60;;
8982;SDS011;20979;59.850;10.660;2023-07-16T09:45:05;8.40;;;3.53;;
8982;SDS011;20979;59.850;10.660;2023-07-16T09:47:33;9.00;;;3.20;;
8982;SDS011;20979;59.850;10.660;2023-07-16T09:50:01;11.93;;;3.57;;
8982;SDS011;20979;59.850;10.660;2023-07-16T09:52:29;9.20;;;3.43;;
8982;SDS011;20979;59.850;10.660;2023-07-16T09:57:47;9.50;;;3.50;;
8982;SDS011;20979;59.850;10.660;2023-07-16T10:00:16;10.43;;;3.57;;
8982;SDS011;20979;59.850;10.660;2023-07-16T10:02:47;13.10;;;4.10;;
8982;SDS011;20979;59.850;10.660;2023-07-16T10:05:15;12.00;;;3.67;;
8982;SDS011;20979;59.850;10.660;2023-07-16T10:07:43;9.67;;;3.27;;
8982;SDS011;20979;59.850;10.660;2023-07-16T10:10:17;11.83;;;3.50;;
8982;SDS011;20979;59.850;10.660;2023-07-16T10:15:28;12.93;;;3.70;;
8982;SDS011;20979;59.850;10.660;2023-07-16T10:17:56;11.10;;;3.53;;
8982;SDS011;20979;59.850;10.660;2023-07-16T10:20:30;15.25;;;4.38;;
8982;SDS011;20979;59.850;10.660;2023-07-16T10:22:58;12.68;;;3.83;;
8982;SDS011;20979;59.850;10.660;2023-07-16T10:25:26;11.02;;;4.03;;
8982;SDS011;20979;59.850;10.660;2023-07-16T10:27:55;9.50;;;3.40;;
8982;SDS011;20979;59.850;10.660;2023-07-16T10:30:25;10.90;;;3.60;;
8982;SDS011;20979;59.850;10.660;2023-07-16T10:32:53;12.60;;;3.95;;
8982;SDS011;20979;59.850;10.660;2023-07-16T10:35:21;10.38;;;3.90;;
8982;SDS011;20979;59.850;10.660;2023-07-16T10:38:02;11.25;;;3.88;;
8982;SDS011;20979;59.850;10.660;2023-07-16T10:40:29;11.30;;;3.40;;
8982;SDS011;20979;59.850;10.660;2023-07-16T10:42:57;13.73;;;3.78;;
8982;SDS011;20979;59.850;10.660;2023-07-16T10:45:25;9.73;;;3.50;;
8982;SDS011;20979;59.850;10.660;2023-07-16T10:47:54;10.82;;;3.70;;
8982;SDS011;20979;59.850;10.660;2023-07-16T10:50:22;11.50;;;4.13;;
8982;SDS011;20979;59.850;10.660;2023-07-16T10:52:52;13.73;;;4.30;;
8982;SDS011;20979;59.850;10.660;2023-07-16T10:55:20;14.03;;;4.57;;
8982;SDS011;20979;59.850;10.660;2023-07-16T11:00:31;12.80;;;4.27;;
8982;SDS011;20979;59.850;10.660;2023-07-16T11:03:00;13.73;;;5.00;;
8982;SDS011;20979;59.850;10.660;2023-07-16T11:05:28;10.30;;;4.20;;
8982;SDS011;20979;59.850;10.660;2023-07-16T11:07:55;16.23;;;4.67;;
8982;SDS011;20979;59.850;10.660;2023-07-16T11:10:37;14.00;;;5.17;;
8982;SDS011;20979;59.850;10.660;2023-07-16T11:13:04;16.03;;;5.00;;
8982;SDS011;20979;59.850;10.660;2023-07-16T11:22:09;14.43;;;5.40;;
8982;SDS011;20979;59.850;10.660;2023-07-16T11:24:37;11.83;;;5.50;;
8982;SDS011;20979;59.850;10.660;2023-07-16T11:27:12;12.63;;;5.10;;
8982;SDS011;20979;59.850;10.660;2023-07-16T11:32:30;16.23;;;5.93;;
8982;SDS011;20979;59.850;10.660;2023-07-16T11:34:59;14.33;;;5.67;;
8982;SDS011;20979;59.850;10.660;2023-07-16T11:37:35;19.43;;;6.60;;
8982;SDS011;20979;59.850;10.660;2023-07-16T11:40:23;14.73;;;5.57;;
8982;SDS011;20979;59.850;10.660;2023-07-16T11:42:52;11.47;;;5.73;;
8982;SDS011;20979;59.850;10.660;2023-07-16T11:45:21;17.67;;;6.40;;
8982;SDS011;20979;59.850;10.660;2023-07-16T11:47:51;13.90;;;5.40;;
8982;SDS011;20979;59.850;10.660;2023-07-16T11:50:25;15.43;;;6.00;;
8982;SDS011;20979;59.850;10.660;2023-07-16T11:52:54;15.03;;;5.97;;
8982;SDS011;20979;59.850;10.660;2023-07-16T11:55:22;13.40;;;5.30;;
8982;SDS011;20979;59.850;10.660;2023-07-16T11:57:49;12.23;;;5.77;;
8982;SDS011;20979;59.850;10.660;2023-07-16T12:00:17;16.53;;;6.10;;
8982;SDS011;20979;59.850;10.660;2023-07-16T12:02:44;16.60;;;5.93;;
8982;SDS011;20979;59.850;10.660;2023-07-16T12:05:19;10.67;;;5.17;;
8982;SDS011;20979;59.850;10.660;2023-07-16T12:07:54;13.10;;;5.10;;
8982;SDS011;20979;59.850;10.660;2023-07-16T12:10:22;14.43;;;5.40;;
8982;SDS011;20979;59.850;10.660;2023-07-16T12:12:51;9.80;;;4.80;;
8982;SDS011;20979;59.850;10.660;2023-07-16T12:15:18;15.80;;;5.20;;
8982;SDS011;20979;59.850;10.660;2023-07-16T12:18:14;12.10;;;6.30;;
8982;SDS011;20979;59.850;10.660;2023-07-16T12:20:42;17.83;;;6.30;;
8982;SDS011;20979;59.850;10.660;2023-07-16T12:23:19;15.90;;;6.20;;
8982;SDS011;20979;59.850;10.660;2023-07-16T12:25:53;12.93;;;5.43;;
8982;SDS011;20979;59.850;10.660;2023-07-16T12:28:20;12.13;;;5.33;;
8982;SDS011;20979;59.850;10.660;2023-07-16T12:30:50;14.70;;;5.50;;
8982;SDS011;20979;59.850;10.660;2023-07-16T12:33:18;12.77;;;5.77;;
8982;SDS011;20979;59.850;10.660;2023-07-16T12:35:59;15.53;;;5.57;;
8982;SDS011;20979;59.850;10.660;2023-07-16T12:38:43;12.13;;;5.23;;
8982;SDS011;20979;59.850;10.660;2023-07-16T12:41:11;14.40;;;6.10;;
8982;SDS011;20979;59.850;10.660;2023-07-16T12:43:41;13.60;;;5.40;;
8982;SDS011;20979;59.850;10.660;2023-07-16T12:46:09;13.57;;;5.57;;
8982;SDS011;20979;59.850;10.660;2023-07-16T12:48:36;16.20;;;5.50;;
8982;SDS011;20979;59.850;10.660;2023-07-16T12:51:17;13.33;;;5.13;;
8982;SDS011;20979;59.850;10.660;2023-07-16T12:57:09;16.07;;;5.40;;
8982;SDS011;20979;59.850;10.660;2023-07-16T12:59:36;13.53;;;5.20;;
8982;SDS011;20979;59.850;10.660;2023-07-16T13:02:04;14.77;;;5.87;;
8982;SDS011;20979;59.850;10.660;2023-07-16T13:04:31;15.10;;;5.50;;
8982;SDS011;20979;59.850;10.660;2023-07-16T13:06:59;12.63;;;5.73;;
8982;SDS011;20979;59.850;10.660;2023-07-16T13:09:27;12.67;;;5.07;;
8982;SDS011;20979;59.850;10.660;2023-07-16T13:11:55;16.20;;;5.40;;
8982;SDS011;20979;59.850;10.660;2023-07-16T13:14:24;14.93;;;5.50;;
8982;SDS011;20979;59.850;10.660;2023-07-16T13:16:52;12.87;;;5.30;;
8982;SDS011;20979;59.850;10.660;2023-07-16T13:19:19;13.97;;;5.47;;
8982;SDS011;20979;59.850;10.660;2023-07-16T13:22:07;13.33;;;5.20;;
8982;SDS011;20979;59.850;10.660;2023-07-16T13:24:34;16.07;;;5.23;;
8982;SDS011;20979;59.850;10.660;2023-07-16T13:27:03;10.17;;;4.50;;
8982;SDS011;20979;59.850;10.660;2023-07-16T13:29:46;10.87;;;4.47;;
8982;SDS011;20979;59.850;10.660;2023-07-16T13:32:15;11.80;;;4.70;;
8982;SDS011;20979;59.850;10.660;2023-07-16T13:34:43;12.73;;;4.77;;
8982;SDS011;20979;59.850;10.660;2023-07-16T13:37:12;12.47;;;4.80;;
8982;SDS011;20979;59.850;10.660;2023-07-16T13:39:40;8.93;;;3.90;;
8982;SDS011;20979;59.850;10.660;2023-07-16T13:42:08;8.13;;;3.37;;
8982;SDS011;20979;59.850;10.660;2023-07-16T13:44:36;7.73;;;3.20;;
8982;SDS011;20979;59.850;10.660;2023-07-16T13:47:13;6.93;;;3.30;;
8982;SDS011;20979;59.850;10.660;2023-07-16T13:49:40;7.80;;;3.27;;
8982;SDS011;20979;59.850;10.660;2023-07-16T13:52:08;9.47;;;3.37;;
8982;SDS011;20979;59.850;10.660;2023-07-16T13:54:35;8.20;;;3.37;;
8982;SDS011;20979;59.850;10.660;2023-07-16T13:57:03;10.87;;;3.83;;
8982;SDS011;20979;59.850;10.660;2023-07-16T13:59:31;6.30;;;3.30;;
8982;SDS011;20979;59.850;10.660;2023-07-16T14:01:59;8.87;;;3.40;;
8982;SDS011;20979;59.850;10.660;2023-07-16T14:04:34;10.73;;;3.70;;
8982;SDS011;20979;59.850;10.660;2023-07-16T14:07:02;10.87;;;3.50;;
8982;SDS011;20979;59.850;10.660;2023-07-16T14:09:29;6.90;;;3.00;;
8982;SDS011;20979;59.850;10.660;2023-07-16T14:11:59;10.07;;;3.37;;
8982;SDS011;20979;59.850;10.660;2023-07-16T14:14:27;8.90;;;3.03;;
8982;SDS011;20979;59.850;10.660;2023-07-16T14:16:59;9.00;;;3.23;;
8982;SDS011;20979;59.850;10.660;2023-07-16T14:19:26;10.37;;;3.27;;
8982;SDS011;20979;59.850;10.660;2023-07-16T14:21:56;8.83;;;2.87;;
8982;SDS011;20979;59.850;10.660;2023-07-16T14:24:24;11.00;;;3.43;;
8982;SDS011;20979;59.850;10.660;2023-07-16T14:26:51;8.53;;;3.20;;
8982;SDS011;20979;59.850;10.660;2023-07-16T14:29:19;11.57;;;2.93;;
8982;SDS011;20979;59.850;10.660;2023-07-16T14:31:46;10.53;;;3.40;;
8982;SDS011;20979;59.850;10.660;2023-07-16T14:34:14;10.02;;;3.00;;
8982;SDS011;20979;59.850;10.660;2023-07-16T14:36:41;9.30;;;3.13;;
8982;SDS011;20979;59.850;10.660;2023-07-16T14:39:10;7.93;;;3.20;;
8982;SDS011;20979;59.850;10.660;2023-07-16T14:41:51;12.00;;;3.50;;
8982;SDS011;20979;59.850;10.660;2023-07-16T14:44:19;12.47;;;3.27;;
8982;SDS011;20979;59.850;10.660;2023-07-16T14:46:46;12.47;;;3.73;;
8982;SDS011;20979;59.850;10.660;2023-07-16T14:49:14;11.00;;;3.80;;
8982;SDS011;20979;59.850;10.660;2023-07-16T14:51:41;12.63;;;3.30;;
8982;SDS011;20979;59.850;10.660;2023-07-16T14:54:11;11.30;;;3.53;;
8982;SDS011;20979;59.850;10.660;2023-07-16T14:56:38;12.83;;;3.80;;
8982;SDS011;20979;59.850;10.660;2023-07-16T14:59:06;10.40;;;3.77;;
8982;SDS011;20979;59.850;10.660;2023-07-16T15:01:34;7.93;;;3.37;;
8982;SDS011;20979;59.850;10.660;2023-07-16T15:04:01;13.37;;;3.83;;
8982;SDS011;20979;59.850;10.660;2023-07-16T15:06:30;11.93;;;3.57;;
8982;SDS011;20979;59.850;10.660;2023-07-16T15:08:57;15.23;;;3.70;;
8982;SDS011;20979;59.850;10.660;2023-07-16T15:11:34;11.57;;;3.63;;
8982;SDS011;20979;59.850;10.660;2023-07-16T15:14:01;14.30;;;4.13;;
8982;SDS011;20979;59.850;10.660;2023-07-16T15:16:29;13.13;;;4.10;;
8982;SDS011;20979;59.850;10.660;2023-07-16T15:18:57;11.03;;;3.40;;
8982;SDS011;20979;59.850;10.660;2023-07-16T15:21:25;11.57;;;4.07;;
8982;SDS011;20979;59.850;10.660;2023-07-16T15:23:54;12.93;;;3.90;;
8982;SDS011;20979;59.850;10.660;2023-07-16T15:26:22;11.60;;;3.70;;
8982;SDS011;20979;59.850;10.660;2023-07-16T15:28:51;12.80;;;3.83;;
8982;SDS011;20979;59.850;10.660;2023-07-16T15:31:19;11.87;;;4.10;;
8982;SDS011;20979;59.850;10.660;2023-07-16T15:33:52;10.93;;;3.53;;
8982;SDS011;20979;59.850;10.660;2023-07-16T15:36:20;13.90;;;3.40;;
8982;SDS011;20979;59.850;10.660;2023-07-16T15:38:47;14.03;;;4.20;;
8982;SDS011;20979;59.850;10.660;2023-07-16T15:41:16;13.10;;;3.87;;
8982;SDS011;20979;59.850;10.660;2023-07-16T15:43:44;10.83;;;3.70;;
8982;SDS011;20979;59.850;10.660;2023-07-16T15:46:15;14.43;;;3.57;;
8982;SDS011;20979;59.850;10.660;2023-07-16T15:48:42;12.93;;;3.93;;
8982;SDS011;20979;59.850;10.660;2023-07-16T15:51:10;10.83;;;3.70;;